createdAt,value
2023-03-11T00:00:10.612Z,26.31
2023-03-11T00:01:10.644Z,26.29
2023-03-11T00:02:10.792Z,27.50
2023-03-11T00:03:10.734Z,27.28
2023-03-11T00:04:10.759Z,27.06
2023-03-11T00:05:10.814Z,28.46
2023-03-11T00:06:10.819Z,27.88
2023-03-11T00:07:10.861Z,25.33
2023-03-11T00:08:10.925Z,26.72
2023-03-11T00:09:10.978Z,29.98
2023-03-11T00:10:11.032Z,25.65
2023-03-11T00:11:11.090Z,27.79
2023-03-11T00:12:11.103Z,27.65
2023-03-11T00:13:11.149Z,29.09
2023-03-11T00:14:11.279Z,27.03
2023-03-11T00:15:11.269Z,27.46
2023-03-11T00:16:11.365Z,27.41
2023-03-11T00:17:11.366Z,26.25
2023-03-11T00:19:11.476Z,27.08
2023-03-11T00:20:11.530Z,27.49
2023-03-11T00:21:11.642Z,26.41
2023-03-11T00:22:11.681Z,27.40
2023-03-11T00:23:11.719Z,26.50
2023-03-11T00:24:11.757Z,27.91
2023-03-11T00:25:11.815Z,27.03
2023-03-11T00:26:11.867Z,28.16
2023-03-11T00:27:11.954Z,26.67
2023-03-11T00:28:11.981Z,26.11
2023-03-11T00:29:12.034Z,27.12
2023-03-11T00:30:12.093Z,25.27
2023-03-11T00:31:12.232Z,27.28
2023-03-11T00:32:12.310Z,25.39
2023-03-11T00:33:12.271Z,26.73
2023-03-11T00:34:12.312Z,25.21
2023-03-11T00:35:12.356Z,27.37
2023-03-11T00:36:12.471Z,27.84
2023-03-11T00:37:12.469Z,26.69
2023-03-11T00:38:12.521Z,25.51
2023-03-11T00:39:12.579Z,25.78
2023-03-11T00:40:12.630Z,25.68
2023-03-11T00:41:12.697Z,25.43
2023-03-11T00:42:12.747Z,28.13
2023-03-11T00:43:12.795Z,27.71
2023-03-11T00:44:12.859Z,27.57
2023-03-11T00:45:12.880Z,26.36
2023-03-11T00:46:13.293Z,29.37
2023-03-11T00:47:12.996Z,28.76
2023-03-11T00:48:13.053Z,28.70
2023-03-11T00:49:13.115Z,27.26
2023-03-11T00:50:13.188Z,26.74
2023-03-11T00:51:13.226Z,27.42
2023-03-11T00:52:13.276Z,27.02
2023-03-11T00:53:13.344Z,26.39
2023-03-11T00:54:13.385Z,27.85
2023-03-11T00:55:13.439Z,28.47
2023-03-11T02:25:19.206Z,26.22
2023-03-11T02:34:18.924Z,29.81
2023-03-11T02:35:18.973Z,30.69
2023-03-11T02:36:19.088Z,27.77
2023-03-11T02:37:19.068Z,26.79
2023-03-11T02:38:19.157Z,26.39
2023-03-11T02:39:19.185Z,29.00
2023-03-11T02:40:19.241Z,28.84
2023-03-11T02:41:19.312Z,27.81
2023-03-11T02:42:19.354Z,26.98
2023-03-11T02:43:19.399Z,29.79
2023-03-11T02:44:19.482Z,27.12
2023-03-11T02:45:20.223Z,27.79
2023-03-11T02:46:19.629Z,28.14
2023-03-11T02:47:19.660Z,29.75
2023-03-11T02:48:19.731Z,27.30
2023-03-11T02:49:19.775Z,25.81
2023-03-11T02:50:19.841Z,25.90
2023-03-11T02:51:19.900Z,28.24
2023-03-11T02:52:20.016Z,28.26
2023-03-11T02:53:20.125Z,29.62
2023-03-11T02:54:20.720Z,28.82
2023-03-11T02:55:20.169Z,28.51
2023-03-11T02:56:20.219Z,28.62
2023-03-11T02:57:20.294Z,29.09
2023-03-11T02:58:20.426Z,29.72
2023-03-11T02:59:20.412Z,26.19
2023-03-11T03:00:20.497Z,30.02
2023-03-11T03:01:20.655Z,28.63
2023-03-11T03:02:20.654Z,31.20
2023-03-11T03:03:20.641Z,29.43
2023-03-11T03:04:20.790Z,28.96
2023-03-11T03:05:20.756Z,29.46
2023-03-11T03:06:20.784Z,28.13
2023-03-11T03:07:20.819Z,27.33
2023-03-11T03:08:20.866Z,26.86
2023-03-11T03:09:20.915Z,28.31
2023-03-11T03:10:20.958Z,26.71
2023-03-11T03:11:21.026Z,26.23
2023-03-11T03:12:21.060Z,26.40
2023-03-11T03:13:21.105Z,26.51
2023-03-11T03:14:21.154Z,28.00
2023-03-11T03:15:21.181Z,27.21
2023-03-11T03:16:21.331Z,26.11
2023-03-11T03:17:21.299Z,26.36
2023-03-11T03:18:21.281Z,27.68
2023-03-11T03:19:21.376Z,31.80
2023-03-11T03:20:21.335Z,30.87
2023-03-11T05:13:22.639Z,30.28
2023-03-11T05:14:22.623Z,27.15
2023-03-11T05:15:22.616Z,28.50
2023-03-11T05:16:22.853Z,28.33
2023-03-11T05:17:22.618Z,27.70
2023-03-11T05:18:22.644Z,27.93
2023-03-11T05:19:22.590Z,28.45
2023-03-11T05:20:22.614Z,27.93
2023-03-11T05:21:22.616Z,29.85
2023-03-11T05:22:22.634Z,28.38
2023-03-11T05:23:22.658Z,29.56
2023-03-11T05:24:22.675Z,28.64
2023-03-11T05:25:22.670Z,28.44
2023-03-11T05:26:22.690Z,26.45
2023-03-11T05:27:22.687Z,28.09
2023-03-11T05:28:22.691Z,28.87
2023-03-11T05:29:22.688Z,25.51
2023-03-11T05:30:22.694Z,27.12
2023-03-11T05:31:22.713Z,29.29
2023-03-11T05:32:22.743Z,27.34
2023-03-11T05:33:22.676Z,27.04
2023-03-11T05:34:22.676Z,27.65
2023-03-11T05:35:22.768Z,27.92
2023-03-11T05:36:22.694Z,26.98
2023-03-11T05:37:22.680Z,27.03
2023-03-11T05:38:22.680Z,27.87
2023-03-11T05:39:22.677Z,29.75
2023-03-11T05:40:22.697Z,30.50
2023-03-11T05:41:22.699Z,29.11
2023-03-11T05:42:22.684Z,28.51
2023-03-11T05:43:22.693Z,28.55
2023-03-11T05:44:22.694Z,26.23
2023-03-11T05:45:22.693Z,26.56
2023-03-11T05:46:22.740Z,29.29
2023-03-11T05:47:22.670Z,28.21
2023-03-11T05:48:22.681Z,26.46
2023-03-11T05:49:22.680Z,26.78
2023-03-11T05:50:22.678Z,29.19
2023-03-11T05:51:22.694Z,28.36
2023-03-11T05:52:22.688Z,27.63
2023-03-11T05:53:22.669Z,28.02
2023-03-11T05:54:22.666Z,27.04
2023-03-11T05:55:23.373Z,29.80
2023-03-11T05:56:22.661Z,27.18
2023-03-11T05:57:22.809Z,30.20
2023-03-11T05:58:22.666Z,28.50
2023-03-11T05:59:22.659Z,27.27
2023-03-11T06:00:22.662Z,28.69
2023-03-11T06:01:22.652Z,26.49
2023-03-11T06:02:22.646Z,27.29
2023-03-11T06:03:22.653Z,28.27
2023-03-11T06:04:22.709Z,29.76
2023-03-11T06:05:22.738Z,28.55
2023-03-11T06:06:22.666Z,26.59
2023-03-11T06:07:22.685Z,28.48
2023-03-11T06:08:22.675Z,27.85
2023-03-11T06:09:22.682Z,30.09
2023-03-11T06:10:22.694Z,29.13
2023-03-11T06:11:22.703Z,28.74
2023-03-11T06:12:22.776Z,26.96
2023-03-11T06:13:22.729Z,29.17
2023-03-11T06:14:22.744Z,27.24
2023-03-11T06:15:22.755Z,28.13
2023-03-11T06:16:22.792Z,28.99
2023-03-11T06:17:22.765Z,31.30
2023-03-11T06:18:22.779Z,27.12
2023-03-11T06:19:22.803Z,28.58
2023-03-11T06:20:22.826Z,30.42
2023-03-11T06:21:22.835Z,27.40
2023-03-11T06:22:22.843Z,29.54
2023-03-11T06:23:22.862Z,27.76
2023-03-11T06:24:22.834Z,28.57
2023-03-11T06:25:22.834Z,27.87
2023-03-11T06:26:22.841Z,28.20
2023-03-11T06:27:22.877Z,27.81
2023-03-11T06:28:22.898Z,29.21
2023-03-11T06:29:22.946Z,25.00
2023-03-11T06:30:22.948Z,28.44
2023-03-11T06:31:23.077Z,25.98
2023-03-11T06:32:23.000Z,28.20
2023-03-11T06:33:22.951Z,27.74
2023-03-11T06:34:22.964Z,29.21
2023-03-11T06:35:22.968Z,29.01
2023-03-11T06:36:22.983Z,28.90
2023-03-11T06:37:22.983Z,34.00
2023-03-11T06:38:23.028Z,26.68
2023-03-11T06:39:23.022Z,29.18
2023-03-11T06:40:23.024Z,28.43
2023-03-11T06:41:23.025Z,28.80
2023-03-11T06:42:23.032Z,28.26
2023-03-11T06:43:23.035Z,27.85
2023-03-11T06:44:23.037Z,26.39
2023-03-11T06:45:23.809Z,29.16
2023-03-11T06:46:23.048Z,30.42
2023-03-11T06:47:23.101Z,28.62
2023-03-11T06:48:23.058Z,29.86
2023-03-11T06:49:23.064Z,26.81
2023-03-11T06:50:23.062Z,28.92
2023-03-11T06:51:23.058Z,26.68
2023-03-11T06:52:23.138Z,29.99
2023-03-11T06:53:23.040Z,29.27
2023-03-11T06:54:23.041Z,26.82
2023-03-11T06:55:23.041Z,29.25
2023-03-11T08:11:23.232Z,30.98
2023-03-11T08:17:23.260Z,30.92
2023-03-11T08:18:23.357Z,29.84
2023-03-11T08:19:23.256Z,26.32
2023-03-11T08:20:23.244Z,26.49
2023-03-11T08:21:23.245Z,28.69
2023-03-11T08:22:23.229Z,31.21
2023-03-11T08:23:23.212Z,26.04
2023-03-11T08:24:23.204Z,28.62
2023-03-11T08:25:23.201Z,28.67
2023-03-11T08:26:23.195Z,30.54
2023-03-11T08:27:23.185Z,29.85
2023-03-11T08:28:23.168Z,27.33
2023-03-11T08:29:23.169Z,27.24
2023-03-11T08:30:23.162Z,28.90
2023-03-11T08:31:23.259Z,27.84
2023-03-11T08:32:23.193Z,25.53
2023-03-11T08:33:23.144Z,27.55
2023-03-11T08:34:23.129Z,27.73
2023-03-11T08:35:23.125Z,29.62
2023-03-11T08:36:23.134Z,29.20
2023-03-11T08:37:24.377Z,30.18
2023-03-11T08:38:23.117Z,27.96
2023-03-11T08:39:23.102Z,29.00
2023-03-11T08:40:23.119Z,27.64
2023-03-11T08:41:23.110Z,26.79
2023-03-11T08:42:23.129Z,27.31
2023-03-11T08:43:23.126Z,29.83
2023-03-11T08:44:23.112Z,27.30
2023-03-11T08:45:23.094Z,26.88
2023-03-11T08:46:23.163Z,30.11
2023-03-11T08:47:23.082Z,27.89
2023-03-11T08:48:23.088Z,27.13
2023-03-11T08:49:23.085Z,28.50
2023-03-11T08:50:23.059Z,29.01
2023-03-11T08:51:23.060Z,25.35
2023-03-11T08:52:23.049Z,28.37
2023-03-11T08:53:23.066Z,28.57
2023-03-11T08:54:23.848Z,26.88
2023-03-11T08:55:23.010Z,29.65
2023-03-11T08:56:23.011Z,26.81
2023-03-11T08:57:23.010Z,28.58
2023-03-11T08:58:22.982Z,29.24
2023-03-11T08:59:22.984Z,29.13
2023-03-11T09:00:22.964Z,27.75
2023-03-11T09:01:22.953Z,28.14
2023-03-11T09:02:23.005Z,29.04
2023-03-11T09:03:22.934Z,29.08
2023-03-11T09:04:22.943Z,30.39
2023-03-11T09:05:22.945Z,28.30
2023-03-11T09:06:22.931Z,26.89
2023-03-11T09:07:22.910Z,26.02
2023-03-11T09:08:22.915Z,28.72
2023-03-11T09:09:22.898Z,27.65
2023-03-11T09:10:22.901Z,28.76
2023-03-11T09:11:22.959Z,27.61
2023-03-11T09:12:22.889Z,27.71
2023-03-11T09:13:22.870Z,27.54
2023-03-11T09:14:22.873Z,27.20
2023-03-11T09:15:22.859Z,30.46
2023-03-11T09:16:22.990Z,30.86
2023-03-11T09:17:22.941Z,27.63
2023-03-11T09:18:22.868Z,27.51
2023-03-11T09:19:22.877Z,29.32
2023-03-11T09:20:22.865Z,28.61
2023-03-11T09:21:22.886Z,30.28
2023-03-11T09:22:22.875Z,27.89
2023-03-11T09:23:22.890Z,28.46
2023-03-11T09:24:22.886Z,28.00
2023-03-11T09:25:22.885Z,29.44
2023-03-11T09:26:22.871Z,28.18
2023-03-11T09:27:22.885Z,28.52
2023-03-11T09:28:22.880Z,28.50
2023-03-11T09:29:22.853Z,28.32
2023-03-11T09:30:22.839Z,28.63
2023-03-11T09:31:23.410Z,28.63
2023-03-11T09:32:22.895Z,27.94
2023-03-11T09:33:23.370Z,28.41
2023-03-11T09:34:22.835Z,26.78
2023-03-11T09:35:22.855Z,30.15
2023-03-11T09:36:22.831Z,28.19
2023-03-11T09:37:22.901Z,25.92
2023-03-11T09:38:22.821Z,28.97
2023-03-11T09:39:22.845Z,26.07
2023-03-11T09:40:22.850Z,26.95
2023-03-11T09:41:22.863Z,30.74
2023-03-11T09:42:22.838Z,25.91
2023-03-11T09:43:22.820Z,25.02
2023-03-11T09:44:22.833Z,30.10
2023-03-11T09:45:22.821Z,30.19
2023-03-11T09:46:22.827Z,25.93
2023-03-11T09:47:22.840Z,28.83
2023-03-11T09:48:22.934Z,27.81
2023-03-11T09:49:22.819Z,25.75
2023-03-11T09:50:22.842Z,28.92
2023-03-11T09:51:22.937Z,28.65
2023-03-11T09:52:22.837Z,29.25
2023-03-11T09:53:22.856Z,29.90
2023-03-11T09:54:22.863Z,28.09
2023-03-11T09:55:22.855Z,26.05
2023-03-11T09:56:22.857Z,29.11
2023-03-11T09:57:22.859Z,25.49
2023-03-11T09:58:22.860Z,27.75
2023-03-11T09:59:22.842Z,28.02
2023-03-11T10:00:22.886Z,29.50
2023-03-11T10:01:23.368Z,26.54
2023-03-11T10:02:22.921Z,28.05
2023-03-11T10:03:22.893Z,28.17
2023-03-11T10:04:22.863Z,28.14
2023-03-11T10:05:22.847Z,28.60
2023-03-11T10:06:22.851Z,29.75
2023-03-11T10:07:22.873Z,27.59
2023-03-11T10:08:22.849Z,28.40
2023-03-11T10:09:22.844Z,28.59
2023-03-11T10:10:22.859Z,27.57
2023-03-11T10:11:22.842Z,28.93
2023-03-11T10:12:22.894Z,27.15
2023-03-11T10:13:22.815Z,29.12
2023-03-11T10:14:22.821Z,27.03
2023-03-11T10:15:22.807Z,28.22
2023-03-11T10:16:22.822Z,25.71
2023-03-11T10:17:22.816Z,25.65
2023-03-11T10:18:22.802Z,29.36
2023-03-11T10:19:22.852Z,28.36
2023-03-11T10:20:22.824Z,27.02
2023-03-11T10:21:25.519Z,30.02
2023-03-11T10:22:22.822Z,30.51
2023-03-11T10:23:22.836Z,32.17
2023-03-11T10:24:22.803Z,30.91
2023-03-11T10:25:22.870Z,28.34
2023-03-11T10:26:22.781Z,30.63
2023-03-11T10:27:22.782Z,29.48
2023-03-11T10:28:22.765Z,27.97
2023-03-11T10:29:22.748Z,29.10
2023-03-11T10:30:22.731Z,30.75
2023-03-11T10:31:22.909Z,28.37
2023-03-11T10:32:22.730Z,29.66
2023-03-11T10:33:22.709Z,30.89
2023-03-11T10:34:22.710Z,27.50
2023-03-11T10:35:22.707Z,31.21
2023-03-11T10:36:22.682Z,29.79
2023-03-11T10:37:22.758Z,28.74
2023-03-11T10:38:22.666Z,29.36
2023-03-11T10:39:22.652Z,28.43
2023-03-11T10:40:23.971Z,30.25
2023-03-11T10:41:22.632Z,34.64
2023-03-11T10:42:22.625Z,29.96
2023-03-11T10:43:22.616Z,32.15
2023-03-11T10:44:22.620Z,26.39
2023-03-11T10:45:22.606Z,29.56
2023-03-11T10:46:22.612Z,27.05
2023-03-11T10:47:22.581Z,27.27
2023-03-11T10:48:22.593Z,25.17
2023-03-11T10:49:22.556Z,28.82
2023-03-11T10:50:22.554Z,29.28
2023-03-11T10:51:22.557Z,29.37
2023-03-11T10:52:22.522Z,31.10
2023-03-11T10:53:22.511Z,28.61
2023-03-11T10:54:22.520Z,30.70
2023-03-11T10:55:22.503Z,28.42
2023-03-11T10:56:22.482Z,26.86
2023-03-11T10:57:22.549Z,28.58
2023-03-11T10:58:22.471Z,30.94
2023-03-11T10:59:22.449Z,28.26
2023-03-11T11:00:23.401Z,29.65
2023-03-11T11:01:22.544Z,27.08
2023-03-11T11:02:22.420Z,25.48
2023-03-11T11:03:22.412Z,26.86
2023-03-11T11:04:22.439Z,29.98
2023-03-11T16:53:29.534Z,32.62
2023-03-11T17:05:28.916Z,33.50
2023-03-11T17:06:28.939Z,32.68
2023-03-11T17:07:28.950Z,31.82
2023-03-11T17:08:28.956Z,38.22
2023-03-11T17:09:28.971Z,34.95
2023-03-11T17:10:29.047Z,35.15
2023-03-11T17:11:29.011Z,34.97
2023-03-11T17:12:29.032Z,35.99
2023-03-11T17:13:29.044Z,30.86
2023-03-11T17:14:29.065Z,36.82
2023-03-11T17:15:29.072Z,34.10
2023-03-11T17:19:29.128Z,34.65
2023-03-11T17:24:29.214Z,32.79
2023-03-11T17:26:29.233Z,36.83
2023-03-11T17:27:29.253Z,37.44
2023-03-11T17:28:29.272Z,34.64
2023-03-11T17:29:29.309Z,33.97
2023-03-11T17:30:36.730Z,35.01
2023-03-11T17:32:29.358Z,35.40
2023-03-11T17:33:29.322Z,34.35
2023-03-11T17:45:29.313Z,37.84
2023-03-11T19:14:31.258Z,39.47
2023-03-11T19:27:31.567Z,38.28
2023-03-11T19:52:32.224Z,36.21
2023-03-11T23:29:39.188Z,31.99
2023-03-11T23:33:39.200Z,32.85
2023-03-11T23:44:39.701Z,35.42
2023-03-11T23:47:38.937Z,33.34
2023-03-11T23:48:38.970Z,35.40
2023-03-11T23:49:39.010Z,37.08
2023-03-11T23:50:39.049Z,33.53
2023-03-11T23:51:39.082Z,35.63
2023-03-11T23:52:39.125Z,33.93
2023-03-11T23:53:39.200Z,32.81
2023-03-11T23:54:39.194Z,34.89
2023-03-11T23:55:39.216Z,32.76
2023-03-11T23:56:39.248Z,32.68
2023-03-11T23:57:39.713Z,30.70
2023-03-11T23:58:39.320Z,33.28
2023-03-11T23:59:39.358Z,33.36
